sensor_id;sensor_type;location;lat;lon;timestamp;pressure;altitude;pressure_sealevel;temperature;humidity
75604;BME280;64187;51.010;13.792;2023-09-18T00:01:27;100028.69;;;19.46;70.60
75604;BME280;64187;51.010;13.792;2023-09-18T00:06:27;100021.63;;;19.31;71.69
75604;BME280;64187;51.010;13.792;2023-09-18T00:11:26;100030.34;;;19.33;71.77
75604;BME280;64187;51.010;13.792;2023-09-18T00:16:26;100027.34;;;19.21;72.22
75604;BME280;64187;51.010;13.792;2023-09-18T00:21:26;100014.81;;;19.15;72.66
75604;BME280;64187;51.010;13.792;2023-09-18T00:26:25;100007.78;;;19.23;71.99
75604;BME280;64187;51.010;13.792;2023-09-18T00:31:24;100010.47;;;19.28;72.06
75604;BME280;64187;51.010;13.792;2023-09-18T00:36:23;100015.38;;;19.03;73.24
75604;BME280;64187;51.010;13.792;2023-09-18T00:41:22;100009.25;;;19.06;73.61
75604;BME280;64187;51.010;13.792;2023-09-18T00:46:22;99999.81;;;18.99;73.57
75604;BME280;64187;51.010;13.792;2023-09-18T00:51:21;99992.69;;;19.11;73.38
75604;BME280;64187;51.010;13.792;2023-09-18T00:56:20;99989.66;;;18.99;73.98
75604;BME280;64187;51.010;13.792;2023-09-18T01:01:22;99989.16;;;18.97;74.19
75604;BME280;64187;51.010;13.792;2023-09-18T01:06:24;99972.81;;;18.78;75.13
75604;BME280;64187;51.010;13.792;2023-09-18T01:11:42;99973.72;;;18.73;75.29
75604;BME280;64187;51.010;13.792;2023-09-18T01:16:53;99961.84;;;18.78;75.44
75604;BME280;64187;51.010;13.792;2023-09-18T01:21:55;99958.06;;;18.88;75.07
75604;BME280;64187;51.010;13.792;2023-09-18T01:26:54;99954.00;;;18.85;75.11
75604;BME280;64187;51.010;13.792;2023-09-18T01:31:54;99945.97;;;18.75;75.58
75604;BME280;64187;51.010;13.792;2023-09-18T01:36:53;99940.91;;;18.68;75.92
75604;BME280;64187;51.010;13.792;2023-09-18T01:41:52;99943.53;;;18.60;76.40
75604;BME280;64187;51.010;13.792;2023-09-18T01:46:52;99923.94;;;18.66;76.51
75604;BME280;64187;51.010;13.792;2023-09-18T01:51:54;99917.34;;;18.67;76.15
75604;BME280;64187;51.010;13.792;2023-09-18T01:56:53;99916.22;;;18.68;76.71
75604;BME280;64187;51.010;13.792;2023-09-18T02:01:53;99912.88;;;18.58;77.06
75604;BME280;64187;51.010;13.792;2023-09-18T02:06:52;99911.66;;;18.64;77.10
75604;BME280;64187;51.010;13.792;2023-09-18T02:11:52;99914.81;;;18.57;77.45
75604;BME280;64187;51.010;13.792;2023-09-18T02:16:51;99907.06;;;18.73;76.97
75604;BME280;64187;51.010;13.792;2023-09-18T02:21:50;99910.34;;;18.61;77.39
75604;BME280;64187;51.010;13.792;2023-09-18T02:26:49;99897.78;;;18.46;78.24
75604;BME280;64187;51.010;13.792;2023-09-18T02:31:47;99882.72;;;18.58;77.91
75604;BME280;64187;51.010;13.792;2023-09-18T02:36:46;99880.31;;;18.56;77.79
75604;BME280;64187;51.010;13.792;2023-09-18T02:41:47;99882.72;;;18.58;78.08
75604;BME280;64187;51.010;13.792;2023-09-18T02:46:46;99870.53;;;18.50;78.31
75604;BME280;64187;51.010;13.792;2023-09-18T02:51:45;99861.41;;;18.55;78.45
75604;BME280;64187;51.010;13.792;2023-09-18T02:56:44;99867.81;;;18.64;78.07
75604;BME280;64187;51.010;13.792;2023-09-18T03:01:43;99858.78;;;18.49;78.35
75604;BME280;64187;51.010;13.792;2023-09-18T03:06:42;99867.50;;;18.51;78.83
75604;BME280;64187;51.010;13.792;2023-09-18T03:11:41;99869.44;;;18.51;78.77
75604;BME280;64187;51.010;13.792;2023-09-18T03:16:40;99872.59;;;18.44;79.13
75604;BME280;64187;51.010;13.792;2023-09-18T03:21:39;99864.66;;;18.43;79.16
75604;BME280;64187;51.010;13.792;2023-09-18T03:26:38;99857.78;;;18.32;79.67
75604;BME280;64187;51.010;13.792;2023-09-18T03:31:37;99852.59;;;18.30;80.15
75604;BME280;64187;51.010;13.792;2023-09-18T03:36:36;99838.72;;;18.26;80.19
75604;BME280;64187;51.010;13.792;2023-09-18T03:41:37;99824.56;;;18.33;79.81
75604;BME280;64187;51.010;13.792;2023-09-18T03:46:37;99829.19;;;18.24;80.15
75604;BME280;64187;51.010;13.792;2023-09-18T03:51:36;99837.88;;;18.26;80.36
75604;BME280;64187;51.010;13.792;2023-09-18T03:56:35;99827.84;;;18.07;80.99
75604;BME280;64187;51.010;13.792;2023-09-18T04:01:34;99824.91;;;18.18;80.81
75604;BME280;64187;51.010;13.792;2023-09-18T04:06:40;99826.94;;;17.98;81.86
75604;BME280;64187;51.010;13.792;2023-09-18T04:11:39;99830.19;;;18.00;81.36
75604;BME280;64187;51.010;13.792;2023-09-18T04:16:38;99819.81;;;17.83;82.16
75604;BME280;64187;51.010;13.792;2023-09-18T04:21:40;99808.75;;;17.75;82.65
75604;BME280;64187;51.010;13.792;2023-09-18T04:26:39;99807.25;;;17.82;82.11
75604;BME280;64187;51.010;13.792;2023-09-18T04:31:38;99812.72;;;17.82;81.80
75604;BME280;64187;51.010;13.792;2023-09-18T04:36:37;99788.53;;;18.90;82.97
75604;BME280;64187;51.010;13.792;2023-09-18T04:41:37;99790.75;;;19.10;79.05
75604;BME280;64187;51.010;13.792;2023-09-18T04:46:37;99791.63;;;19.42;76.31
75604;BME280;64187;51.010;13.792;2023-09-18T04:51:38;99784.09;;;19.48;75.16
75604;BME280;64187;51.010;13.792;2023-09-18T04:56:38;99787.72;;;19.66;74.10
75604;BME280;64187;51.010;13.792;2023-09-18T05:01:37;99784.66;;;19.36;75.18
75604;BME280;64187;51.010;13.792;2023-09-18T05:06:36;99778.91;;;19.46;74.63
75604;BME280;64187;51.010;13.792;2023-09-18T05:11:35;99777.41;;;19.40;75.21
75604;BME280;64187;51.010;13.792;2023-09-18T05:16:34;99766.72;;;18.85;76.76
75604;BME280;64187;51.010;13.792;2023-09-18T05:21:34;99772.47;;;18.61;77.95
75604;BME280;64187;51.010;13.792;2023-09-18T05:26:33;99773.13;;;18.30;80.34
75604;BME280;64187;51.010;13.792;2023-09-18T05:31:32;99759.97;;;18.18;80.69
75604;BME280;64187;51.010;13.792;2023-09-18T05:36:31;99746.16;;;18.23;81.18
75604;BME280;64187;51.010;13.792;2023-09-18T05:41:30;99741.97;;;18.40;80.94
75604;BME280;64187;51.010;13.792;2023-09-18T05:46:30;99753.44;;;18.42;80.43
75604;BME280;64187;51.010;13.792;2023-09-18T05:51:30;99740.00;;;18.54;80.50
75604;BME280;64187;51.010;13.792;2023-09-18T05:56:38;99742.78;;;18.63;80.24
75604;BME280;64187;51.010;13.792;2023-09-18T06:01:37;99735.59;;;18.67;79.78
75604;BME280;64187;51.010;13.792;2023-09-18T06:06:36;99734.25;;;18.78;79.48
75604;BME280;64187;51.010;13.792;2023-09-18T06:11:35;99731.19;;;18.80;79.05
75604;BME280;64187;51.010;13.792;2023-09-18T06:16:34;99711.81;;;18.99;78.18
75604;BME280;64187;51.010;13.792;2023-09-18T06:21:33;99703.47;;;19.12;77.79
75604;BME280;64187;51.010;13.792;2023-09-18T06:26:32;99705.94;;;19.23;77.66
75604;BME280;64187;51.010;13.792;2023-09-18T06:31:31;99691.34;;;19.36;76.65
75604;BME280;64187;51.010;13.792;2023-09-18T06:36:30;99703.03;;;19.59;76.51
75604;BME280;64187;51.010;13.792;2023-09-18T06:41:29;99697.28;;;19.69;76.05
75604;BME280;64187;51.010;13.792;2023-09-18T06:46:29;99671.63;;;19.74;76.12
75604;BME280;64187;51.010;13.792;2023-09-18T06:51:29;99661.44;;;19.74;75.68
75604;BME280;64187;51.010;13.792;2023-09-18T06:56:34;99657.94;;;20.00;73.96
75604;BME280;64187;51.010;13.792;2023-09-18T07:01:34;99649.56;;;20.22;73.05
75604;BME280;64187;51.010;13.792;2023-09-18T07:06:32;99638.22;;;20.33;73.17
75604;BME280;64187;51.010;13.792;2023-09-18T07:11:31;99633.03;;;20.66;71.59
75604;BME280;64187;51.010;13.792;2023-09-18T07:16:30;99636.38;;;20.89;70.43
75604;BME280;64187;51.010;13.792;2023-09-18T07:21:30;99625.84;;;21.00;70.91
75604;BME280;64187;51.010;13.792;2023-09-18T07:26:29;99619.03;;;21.36;69.29
75604;BME280;64187;51.010;13.792;2023-09-18T07:31:28;99619.84;;;21.36;68.84
75604;BME280;64187;51.010;13.792;2023-09-18T07:36:27;99613.72;;;21.69;67.46
75604;BME280;64187;51.010;13.792;2023-09-18T07:41:26;99616.59;;;21.72;67.12
75604;BME280;64187;51.010;13.792;2023-09-18T07:46:25;99597.38;;;21.85;66.82
75604;BME280;64187;51.010;13.792;2023-09-18T07:51:24;99586.91;;;21.99;66.98
75604;BME280;64187;51.010;13.792;2023-09-18T07:56:23;99590.59;;;22.24;66.34
75604;BME280;64187;51.010;13.792;2023-09-18T08:01:22;99591.44;;;22.37;65.22
75604;BME280;64187;51.010;13.792;2023-09-18T08:06:22;99581.50;;;22.57;64.61
75604;BME280;64187;51.010;13.792;2023-09-18T08:11:21;99578.47;;;22.71;63.01
75604;BME280;64187;51.010;13.792;2023-09-18T08:16:22;99565.03;;;22.94;62.27
75604;BME280;64187;51.010;13.792;2023-09-18T08:21:21;99574.38;;;23.14;62.38
75604;BME280;64187;51.010;13.792;2023-09-18T08:26:19;99585.19;;;23.31;61.73
75604;BME280;64187;51.010;13.792;2023-09-18T08:31:20;99569.88;;;23.46;60.32
75604;BME280;64187;51.010;13.792;2023-09-18T08:36:20;99570.66;;;23.59;58.81
75604;BME280;64187;51.010;13.792;2023-09-18T08:41:22;99577.41;;;23.86;57.30
75604;BME280;64187;51.010;13.792;2023-09-18T08:46:24;99560.63;;;24.07;56.70
75604;BME280;64187;51.010;13.792;2023-09-18T08:51:23;99549.25;;;24.08;56.37
75604;BME280;64187;51.010;13.792;2023-09-18T08:56:22;99554.44;;;24.10;56.08
75604;BME280;64187;51.010;13.792;2023-09-18T09:01:22;99552.81;;;24.09;56.02
75604;BME280;64187;51.010;13.792;2023-09-18T09:06:21;99545.56;;;24.33;55.34
75604;BME280;64187;51.010;13.792;2023-09-18T09:11:20;99535.63;;;24.76;53.89
75604;BME280;64187;51.010;13.792;2023-09-18T09:16:20;99517.16;;;24.80;53.10
75604;BME280;64187;51.010;13.792;2023-09-18T09:21:19;99523.94;;;24.98;52.18
75604;BME280;64187;51.010;13.792;2023-09-18T09:26:20;99525.91;;;24.98;51.87
75604;BME280;64187;51.010;13.792;2023-09-18T09:31:29;99517.75;;;25.37;51.34
75604;BME280;64187;51.010;13.792;2023-09-18T09:36:30;99521.59;;;25.51;50.02
75604;BME280;64187;51.010;13.792;2023-09-18T09:41:31;99506.25;;;25.54;49.39
75604;BME280;64187;51.010;13.792;2023-09-18T09:46:31;99506.91;;;25.67;49.68
75604;BME280;64187;51.010;13.792;2023-09-18T09:51:31;99512.50;;;25.70;48.16
75604;BME280;64187;51.010;13.792;2023-09-18T10:01:43;99528.19;;;25.63;49.54
75604;BME280;64187;51.010;13.792;2023-09-18T10:06:51;99522.41;;;25.87;49.00
75604;BME280;64187;51.010;13.792;2023-09-18T10:11:54;99552.03;;;26.03;48.69
75604;BME280;64187;51.010;13.792;2023-09-18T10:16:56;99539.41;;;26.05;48.63
75604;BME280;64187;51.010;13.792;2023-09-18T10:22:06;99523.50;;;26.45;48.51
75604;BME280;64187;51.010;13.792;2023-09-18T10:27:12;99513.72;;;26.74;47.08
75604;BME280;64187;51.010;13.792;2023-09-18T10:32:12;99513.78;;;26.77;46.49
75604;BME280;64187;51.010;13.792;2023-09-18T10:37:14;99518.56;;;26.80;46.58
75604;BME280;64187;51.010;13.792;2023-09-18T10:42:13;99513.66;;;26.70;46.75
75604;BME280;64187;51.010;13.792;2023-09-18T10:47:16;99514.28;;;27.10;46.69
75604;BME280;64187;51.010;13.792;2023-09-18T10:52:17;99502.38;;;27.09;46.58
75604;BME280;64187;51.010;13.792;2023-09-18T10:57:16;99505.16;;;27.09;45.84
75604;BME280;64187;51.010;13.792;2023-09-18T11:02:16;99503.97;;;27.10;47.37
75604;BME280;64187;51.010;13.792;2023-09-18T11:07:23;99506.66;;;26.80;47.67
75604;BME280;64187;51.010;13.792;2023-09-18T11:12:43;99503.28;;;26.67;48.10
75604;BME280;64187;51.010;13.792;2023-09-18T11:17:42;99508.59;;;26.53;47.67
75604;BME280;64187;51.010;13.792;2023-09-18T11:27:53;99507.38;;;26.31;50.36
75604;BME280;64187;51.010;13.792;2023-09-18T11:32:56;99519.03;;;26.40;49.91
75604;BME280;64187;51.010;13.792;2023-09-18T11:38:09;99516.41;;;26.47;49.77
75604;BME280;64187;51.010;13.792;2023-09-18T11:43:25;99527.84;;;26.65;50.11
75604;BME280;64187;51.010;13.792;2023-09-18T11:48:27;99519.38;;;27.04;48.98
75604;BME280;64187;51.010;13.792;2023-09-18T11:53:35;99520.13;;;27.01;48.35
75604;BME280;64187;51.010;13.792;2023-09-18T11:58:48;99521.00;;;27.32;48.02
75604;BME280;64187;51.010;13.792;2023-09-18T12:03:54;99508.63;;;27.56;47.52
75604;BME280;64187;51.010;13.792;2023-09-18T12:08:54;99505.03;;;27.55;47.23
75604;BME280;64187;51.010;13.792;2023-09-18T12:13:54;99497.50;;;27.86;47.06
75604;BME280;64187;51.010;13.792;2023-09-18T12:18:53;99505.66;;;27.71;46.21
75604;BME280;64187;51.010;13.792;2023-09-18T12:23:52;99494.47;;;27.98;46.71
75604;BME280;64187;51.010;13.792;2023-09-18T12:28:51;99489.41;;;27.43;47.62
75604;BME280;64187;51.010;13.792;2023-09-18T12:33:51;99506.13;;;27.20;48.04
75604;BME280;64187;51.010;13.792;2023-09-18T12:38:57;99499.06;;;27.53;48.13
75604;BME280;64187;51.010;13.792;2023-09-18T12:43:56;99505.88;;;27.89;46.36
75604;BME280;64187;51.010;13.792;2023-09-18T12:48:55;99503.00;;;28.53;45.93
75604;BME280;64187;51.010;13.792;2023-09-18T12:54:01;99501.88;;;28.62;44.58
75604;BME280;64187;51.010;13.792;2023-09-18T12:59:05;99505.72;;;28.91;44.74
75604;BME280;64187;51.010;13.792;2023-09-18T13:04:14;99504.91;;;28.90;44.19
75604;BME280;64187;51.010;13.792;2023-09-18T13:09:17;99496.44;;;28.76;43.98
75604;BME280;64187;51.010;13.792;2023-09-18T13:14:18;99481.94;;;28.52;45.90
75604;BME280;64187;51.010;13.792;2023-09-18T13:19:20;99479.25;;;28.67;45.18
75604;BME280;64187;51.010;13.792;2023-09-18T13:24:25;99467.75;;;28.72;44.96
75604;BME280;64187;51.010;13.792;2023-09-18T13:29:24;99468.50;;;28.65;44.37
75604;BME280;64187;51.010;13.792;2023-09-18T13:34:24;99473.78;;;28.33;44.06
75604;BME280;64187;51.010;13.792;2023-09-18T13:39:22;99471.78;;;27.96;45.81
75604;BME280;64187;51.010;13.792;2023-09-18T13:44:22;99479.63;;;27.87;46.77
75604;BME280;64187;51.010;13.792;2023-09-18T13:49:20;99484.25;;;27.76;48.12
75604;BME280;64187;51.010;13.792;2023-09-18T13:54:20;99474.03;;;27.53;47.13
75604;BME280;64187;51.010;13.792;2023-09-18T13:59:19;99472.50;;;27.56;47.71
75604;BME280;64187;51.010;13.792;2023-09-18T14:04:18;99475.88;;;27.42;47.95
75604;BME280;64187;51.010;13.792;2023-09-18T14:09:18;99466.97;;;27.29;48.10
75604;BME280;64187;51.010;13.792;2023-09-18T14:14:18;99470.72;;;27.17;49.03
75604;BME280;64187;51.010;13.792;2023-09-18T14:19:17;99475.63;;;27.24;49.53
75604;BME280;64187;51.010;13.792;2023-09-18T14:24:16;99477.47;;;27.16;50.35
75604;BME280;64187;51.010;13.792;2023-09-18T14:29:21;99480.06;;;27.28;48.92
75604;BME280;64187;51.010;13.792;2023-09-18T14:34:20;99483.63;;;27.29;49.22
75604;BME280;64187;51.010;13.792;2023-09-18T14:39:19;99492.53;;;27.15;48.06
75604;BME280;64187;51.010;13.792;2023-09-18T14:44:17;99493.88;;;26.98;47.73
75604;BME280;64187;51.010;13.792;2023-09-18T14:49:16;99502.81;;;27.11;46.84
75604;BME280;64187;51.010;13.792;2023-09-18T14:54:16;99500.34;;;27.33;46.11
75604;BME280;64187;51.010;13.792;2023-09-18T14:59:15;99506.75;;;27.33;44.89
75604;BME280;64187;51.010;13.792;2023-09-18T15:04:29;99511.16;;;27.38;44.93
75604;BME280;64187;51.010;13.792;2023-09-18T15:09:28;99525.69;;;27.27;45.67
75604;BME280;64187;51.010;13.792;2023-09-18T15:14:27;99529.16;;;26.98;46.55
75604;BME280;64187;51.010;13.792;2023-09-18T15:19:26;99527.66;;;26.77;47.53
75604;BME280;64187;51.010;13.792;2023-09-18T15:24:25;99531.50;;;26.50;46.85
75604;BME280;64187;51.010;13.792;2023-09-18T15:29:24;99535.94;;;26.31;47.25
75604;BME280;64187;51.010;13.792;2023-09-18T15:34:31;99544.00;;;25.97;47.53
75604;BME280;64187;51.010;13.792;2023-09-18T15:39:31;99546.66;;;25.74;46.79
75604;BME280;64187;51.010;13.792;2023-09-18T15:44:31;99540.88;;;25.44;47.26
75604;BME280;64187;51.010;13.792;2023-09-18T15:49:32;99561.91;;;25.29;47.35
75604;BME280;64187;51.010;13.792;2023-09-18T15:54:31;99556.34;;;25.13;47.21
75604;BME280;64187;51.010;13.792;2023-09-18T15:59:30;99554.75;;;25.12;46.78
75604;BME280;64187;51.010;13.792;2023-09-18T16:04:29;99568.69;;;25.00;47.28
75604;BME280;64187;51.010;13.792;2023-09-18T16:09:29;99572.16;;;24.97;47.91
75604;BME280;64187;51.010;13.792;2023-09-18T16:14:27;99579.31;;;24.82;48.81
75604;BME280;64187;51.010;13.792;2023-09-18T16:19:26;99577.94;;;24.32;50.50
75604;BME280;64187;51.010;13.792;2023-09-18T16:24:26;99590.47;;;24.14;52.41
75604;BME280;64187;51.010;13.792;2023-09-18T16:29:26;99590.31;;;23.82;53.04
75604;BME280;64187;51.010;13.792;2023-09-18T16:34:25;99590.94;;;23.63;53.71
75604;BME280;64187;51.010;13.792;2023-09-18T16:39:24;99580.78;;;23.55;54.59
75604;BME280;64187;51.010;13.792;2023-09-18T16:44:24;99610.63;;;23.37;55.41
75604;BME280;64187;51.010;13.792;2023-09-18T16:49:23;99602.69;;;23.23;56.84
75604;BME280;64187;51.010;13.792;2023-09-18T16:54:22;99610.75;;;23.16;58.41
75604;BME280;64187;51.010;13.792;2023-09-18T16:59:21;99605.50;;;22.90;59.82
75604;BME280;64187;51.010;13.792;2023-09-18T17:04:24;99614.06;;;22.64;63.68
75604;BME280;64187;51.010;13.792;2023-09-18T17:09:23;99614.31;;;22.17;66.36
75604;BME280;64187;51.010;13.792;2023-09-18T17:14:22;99603.75;;;21.98;74.32
75604;BME280;64187;51.010;13.792;2023-09-18T17:19:21;99617.59;;;20.91;88.38
75604;BME280;64187;51.010;13.792;2023-09-18T17:24:20;99609.75;;;20.63;91.52
75604;BME280;64187;51.010;13.792;2023-09-18T17:29:20;99625.66;;;20.96;89.57
75604;BME280;64187;51.010;13.792;2023-09-18T17:34:19;99614.13;;;20.47;93.35
75604;BME280;64187;51.010;13.792;2023-09-18T17:39:18;99617.34;;;20.75;92.66
75604;BME280;64187;51.010;13.792;2023-09-18T17:44:17;99613.97;;;20.52;93.86
75604;BME280;64187;51.010;13.792;2023-09-18T17:49:16;99612.66;;;20.58;88.95
75604;BME280;64187;51.010;13.792;2023-09-18T17:54:14;99602.97;;;20.52;91.52
75604;BME280;64187;51.010;13.792;2023-09-18T17:59:13;99619.78;;;20.25;92.83
75604;BME280;64187;51.010;13.792;2023-09-18T18:04:14;99613.97;;;20.35;93.91
75604;BME280;64187;51.010;13.792;2023-09-18T18:09:13;99611.22;;;20.61;91.49
75604;BME280;64187;51.010;13.792;2023-09-18T18:14:12;99607.50;;;20.48;93.71
75604;BME280;64187;51.010;13.792;2023-09-18T18:19:12;99625.13;;;20.47;96.04
75604;BME280;64187;51.010;13.792;2023-09-18T18:24:19;99620.59;;;20.42;95.36
75604;BME280;64187;51.010;13.792;2023-09-18T18:29:19;99617.38;;;20.23;93.41
75604;BME280;64187;51.010;13.792;2023-09-18T18:34:19;99608.31;;;19.96;92.52
75604;BME280;64187;51.010;13.792;2023-09-18T18:39:18;99612.75;;;19.57;98.46
75604;BME280;64187;51.010;13.792;2023-09-18T18:44:17;99602.16;;;19.99;93.75
75604;BME280;64187;51.010;13.792;2023-09-18T18:49:16;99602.50;;;19.89;94.26
75604;BME280;64187;51.010;13.792;2023-09-18T18:54:15;99610.66;;;19.46;100.00
75604;BME280;64187;51.010;13.792;2023-09-18T18:59:14;99615.34;;;19.54;98.33
75604;BME280;64187;51.010;13.792;2023-09-18T19:04:13;99634.97;;;19.30;100.00
75604;BME280;64187;51.010;13.792;2023-09-18T19:09:12;99627.78;;;19.51;100.00
75604;BME280;64187;51.010;13.792;2023-09-18T19:14:11;99622.84;;;19.71;96.32
75604;BME280;64187;51.010;13.792;2023-09-18T19:19:10;99599.41;;;19.73;95.84
75604;BME280;64187;51.010;13.792;2023-09-18T19:24:09;99566.91;;;19.67;94.20
75604;BME280;64187;51.010;13.792;2023-09-18T19:29:09;99579.13;;;19.26;98.19
75604;BME280;64187;51.010;13.792;2023-09-18T19:34:10;99571.53;;;19.40;98.04
75604;BME280;64187;51.010;13.792;2023-09-18T19:39:14;99583.50;;;19.35;99.57
75604;BME280;64187;51.010;13.792;2023-09-18T19:44:12;99586.41;;;19.39;100.00
75604;BME280;64187;51.010;13.792;2023-09-18T19:49:11;99580.78;;;19.53;98.22
75604;BME280;64187;51.010;13.792;2023-09-18T19:54:10;99577.72;;;19.46;99.28
75604;BME280;64187;51.010;13.792;2023-09-18T19:59:09;99581.91;;;19.52;98.51
75604;BME280;64187;51.010;13.792;2023-09-18T20:04:08;99570.63;;;19.53;97.49
75604;BME280;64187;51.010;13.792;2023-09-18T20:09:07;99577.03;;;19.40;96.60
75604;BME280;64187;51.010;13.792;2023-09-18T20:14:08;99570.88;;;19.26;95.07
75604;BME280;64187;51.010;13.792;2023-09-18T20:19:28;99561.53;;;19.35;96.91
75604;BME280;64187;51.010;13.792;2023-09-18T20:24:27;99560.66;;;19.18;96.71
75604;BME280;64187;51.010;13.792;2023-09-18T20:29:26;99550.19;;;19.11;97.91
75604;BME280;64187;51.010;13.792;2023-09-18T20:34:24;99538.22;;;19.07;97.85
75604;BME280;64187;51.010;13.792;2023-09-18T20:39:23;99538.53;;;19.05;98.05
75604;BME280;64187;51.010;13.792;2023-09-18T20:44:25;99540.31;;;19.01;98.11
75604;BME280;64187;51.010;13.792;2023-09-18T20:49:24;99525.88;;;18.78;99.79
75604;BME280;64187;51.010;13.792;2023-09-18T20:54:23;99541.75;;;18.67;99.98
75604;BME280;64187;51.010;13.792;2023-09-18T20:59:22;99555.59;;;18.62;100.00
75604;BME280;64187;51.010;13.792;2023-09-18T21:04:22;99558.91;;;18.50;100.00
75604;BME280;64187;51.010;13.792;2023-09-18T21:09:21;99552.75;;;18.45;100.00
75604;BME280;64187;51.010;13.792;2023-09-18T21:14:20;99561.78;;;18.23;100.00
75604;BME280;64187;51.010;13.792;2023-09-18T21:19:19;99570.72;;;18.28;100.00
75604;BME280;64187;51.010;13.792;2023-09-18T21:24:18;99558.78;;;18.33;100.00
75604;BME280;64187;51.010;13.792;2023-09-18T21:29:17;99564.28;;;18.33;100.00
75604;BME280;64187;51.010;13.792;2023-09-18T21:34:15;99564.34;;;18.19;100.00
75604;BME280;64187;51.010;13.792;2023-09-18T21:39:14;99560.72;;;18.33;100.00
75604;BME280;64187;51.010;13.792;2023-09-18T21:44:13;99548.16;;;18.32;100.00
75604;BME280;64187;51.010;13.792;2023-09-18T21:49:14;99556.50;;;18.26;100.00
75604;BME280;64187;51.010;13.792;2023-09-18T21:54:13;99553.44;;;18.05;100.00
75604;BME280;64187;51.010;13.792;2023-09-18T21:59:12;99550.91;;;18.09;100.00
75604;BME280;64187;51.010;13.792;2023-09-18T22:04:11;99545.44;;;17.86;100.00
75604;BME280;64187;51.010;13.792;2023-09-18T22:09:21;99559.25;;;18.04;100.00
75604;BME280;64187;51.010;13.792;2023-09-18T22:14:23;99546.97;;;17.65;100.00
75604;BME280;64187;51.010;13.792;2023-09-18T22:19:23;99550.59;;;17.88;100.00
75604;BME280;64187;51.010;13.792;2023-09-18T22:24:22;99545.16;;;17.60;100.00
75604;BME280;64187;51.010;13.792;2023-09-18T22:29:23;99556.91;;;17.61;100.00
75604;BME280;64187;51.010;13.792;2023-09-18T22:34:23;99569.06;;;17.69;100.00
75604;BME280;64187;51.010;13.792;2023-09-18T22:56:00;99546.13;;;17.28;100.00
75604;BME280;64187;51.010;13.792;2023-09-18T23:00:59;99547.72;;;17.57;100.00
75604;BME280;64187;51.010;13.792;2023-09-18T23:06:07;99545.81;;;17.43;100.00
75604;BME280;64187;51.010;13.792;2023-09-18T23:11:07;99554.28;;;17.56;100.00
75604;BME280;64187;51.010;13.792;2023-09-18T23:16:05;99552.19;;;17.39;100.00
75604;BME280;64187;51.010;13.792;2023-09-18T23:21:04;99539.00;;;17.55;100.00
75604;BME280;64187;51.010;13.792;2023-09-18T23:26:03;99538.25;;;17.63;100.00
75604;BME280;64187;51.010;13.792;2023-09-18T23:31:03;99537.16;;;17.64;100.00
75604;BME280;64187;51.010;13.792;2023-09-18T23:36:03;99536.41;;;17.72;100.00
75604;BME280;64187;51.010;13.792;2023-09-18T23:41:02;99529.13;;;17.68;100.00
75604;BME280;64187;51.010;13.792;2023-09-18T23:46:05;99531.59;;;17.55;100.00
75604;BME280;64187;51.010;13.792;2023-09-18T23:51:09;99527.94;;;17.60;100.00
75604;BME280;64187;51.010;13.792;2023-09-18T23:56:08;99538.50;;;17.39;100.00
